Terminal Aerodrome Forecast
Issued by NWS Sterling, VA

Home | Current Version | Previous Version | Text Only | Print | Product List | Glossary On
Versions: 1 2 3 4 5 6 7 8 9 10 11 12 13 14 15 16 17 18 19 20 21 22
000
FTUS41 KLWX 221700 RRA
TAFBWI
TAF
KBWI 221745Z 2218/2324 01004KT 5SM -RA BR BKN025 OVC050
     FM230200 VRB03KT 3SM -RADZ BKN008 OVC015
     FM230900 VRB03KT 3SM -RADZ BR OVC003
     FM231500 VRB03KT 3SM -DZ BR OVC008=

USA.gov is the U.S. government's official web portal to all federal, state and local government web resources and services.